createdAt,value
2023-01-19T00:00:50.931Z,40.59
2023-01-19T00:03:17.990Z,40.44
2023-01-19T00:05:45.088Z,40.69
2023-01-19T00:08:15.108Z,40.44
2023-01-19T00:10:43.059Z,40.57
2023-01-19T00:13:09.940Z,40.36
2023-01-19T00:15:37.006Z,40.67
2023-01-19T00:18:04.010Z,40.66
2023-01-19T00:20:32.843Z,40.81
2023-01-19T00:23:00.321Z,40.88
2023-01-19T00:25:27.559Z,40.86
2023-01-19T00:27:54.738Z,40.72
2023-01-19T00:30:22.079Z,40.96
2023-01-19T00:32:48.987Z,40.81
2023-01-19T00:35:16.029Z,40.79
2023-01-19T00:37:46.091Z,41.15
2023-01-19T00:40:16.389Z,41.06
2023-01-19T00:42:48.300Z,40.89
2023-01-19T00:45:22.659Z,41.08
2023-01-19T00:47:54.710Z,41.20
2023-01-19T00:50:21.642Z,41.01
2023-01-19T00:52:48.513Z,41.31
2023-01-19T00:55:15.706Z,41.07
2023-01-19T00:57:42.844Z,41.11
2023-01-19T01:00:14.485Z,41.05
2023-01-19T01:02:41.960Z,41.22
2023-01-19T01:05:09.107Z,40.89
2023-01-19T01:07:42.985Z,41.26
2023-01-19T01:10:20.571Z,41.18
2023-01-19T01:12:56.093Z,40.85
2023-01-19T01:15:27.076Z,40.80
2023-01-19T01:17:54.287Z,41.14
2023-01-19T01:20:23.494Z,40.89
2023-01-19T01:22:51.519Z,41.08
2023-01-19T01:25:19.716Z,41.09
2023-01-19T01:27:46.605Z,41.37
2023-01-19T01:30:14.643Z,41.01
2023-01-19T01:32:41.627Z,40.92
2023-01-19T01:35:09.183Z,41.11
2023-01-19T01:37:36.824Z,41.00
2023-01-19T01:40:04.880Z,41.22
2023-01-19T01:42:32.067Z,41.45
2023-01-19T01:45:01.521Z,41.52
2023-01-19T01:47:32.395Z,41.55
2023-01-19T01:50:11.782Z,41.61
2023-01-19T01:52:42.986Z,41.40
2023-01-19T01:55:29.896Z,41.68
2023-01-19T01:57:58.013Z,41.53
2023-01-19T02:00:25.105Z,41.55
2023-01-19T02:02:55.211Z,41.60
2023-01-19T02:05:33.215Z,42.04
2023-01-19T02:08:29.810Z,42.55
2023-01-19T02:11:15.296Z,42.13
2023-01-19T02:13:47.009Z,42.53
2023-01-19T02:16:14.855Z,42.51
2023-01-19T02:18:43.084Z,42.38
2023-01-19T02:21:14.941Z,42.46
2023-01-19T02:23:46.493Z,42.58
2023-01-19T02:26:16.077Z,42.35
2023-01-19T02:28:45.314Z,42.65
2023-01-19T02:31:12.397Z,42.49
2023-01-19T02:33:39.286Z,42.46
2023-01-19T02:36:08.184Z,42.80
2023-01-19T02:38:35.153Z,42.72
2023-01-19T02:41:02.072Z,42.57
2023-01-19T02:43:28.923Z,42.51
2023-01-19T02:45:56.343Z,42.42
2023-01-19T02:48:23.236Z,42.08
2023-01-19T02:50:54.989Z,42.25
2023-01-19T02:53:24.493Z,42.18
2023-01-19T02:56:15.948Z,42.29
2023-01-19T02:59:01.815Z,42.29
2023-01-19T03:01:51.569Z,42.29
2023-01-19T03:04:49.521Z,42.29
2023-01-19T03:07:22.422Z,42.23
2023-01-19T03:10:04.675Z,42.13
2023-01-19T03:12:45.645Z,41.82
2023-01-19T03:15:15.644Z,41.25
2023-01-19T03:17:42.988Z,41.29
2023-01-19T03:20:10.316Z,40.97
2023-01-19T03:22:37.184Z,40.82
2023-01-19T03:25:04.371Z,40.44
2023-01-19T03:27:33.084Z,40.18
2023-01-19T03:30:11.137Z,39.87
2023-01-19T03:32:41.304Z,39.83
2023-01-19T03:35:10.492Z,39.95
2023-01-19T03:37:42.230Z,39.72
2023-01-19T03:40:09.852Z,39.15
2023-01-19T03:42:37.149Z,39.30
2023-01-19T03:45:04.512Z,39.26
2023-01-19T03:47:31.438Z,38.91
2023-01-19T03:49:58.611Z,38.54
2023-01-19T03:52:29.494Z,38.43
2023-01-19T03:54:56.432Z,38.79
2023-01-19T03:57:23.373Z,38.37
2023-01-19T03:59:50.248Z,38.33
2023-01-19T04:02:17.284Z,38.12
2023-01-19T04:04:44.281Z,37.87
2023-01-19T04:07:11.605Z,38.28
2023-01-19T04:09:38.469Z,37.49
2023-01-19T04:12:05.504Z,37.64
2023-01-19T04:14:32.440Z,37.82
2023-01-19T04:16:59.824Z,37.32
2023-01-19T04:19:26.809Z,37.30
2023-01-19T04:21:53.798Z,37.30
2023-01-19T04:24:20.872Z,36.67
2023-01-19T04:26:47.764Z,36.75
2023-01-19T04:29:14.920Z,36.56
2023-01-19T04:31:42.003Z,36.63
2023-01-19T04:34:09.001Z,36.53
2023-01-19T04:36:36.024Z,36.11
2023-01-19T04:39:03.024Z,36.07
2023-01-19T04:41:31.137Z,36.20
2023-01-19T04:43:58.154Z,36.02
2023-01-19T04:46:25.272Z,36.15
2023-01-19T04:48:52.652Z,36.52
2023-01-19T04:51:19.752Z,36.27
2023-01-19T04:53:46.931Z,36.55
2023-01-19T04:56:13.821Z,37.03
2023-01-19T04:58:40.931Z,37.19
2023-01-19T05:01:09.424Z,37.14
2023-01-19T05:03:36.532Z,37.30
2023-01-19T05:06:03.852Z,36.96
2023-01-19T05:08:30.845Z,36.69
2023-01-19T05:10:57.991Z,36.12
2023-01-19T05:13:25.242Z,35.87
2023-01-19T05:15:52.306Z,35.83
2023-01-19T05:18:19.381Z,35.43
2023-01-19T05:20:47.015Z,35.25
2023-01-19T05:23:14.011Z,34.96
2023-01-19T05:25:42.283Z,34.59
2023-01-19T05:28:09.541Z,34.34
2023-01-19T05:30:36.823Z,34.15
2023-01-19T05:33:03.953Z,34.18
2023-01-19T05:35:36.118Z,34.08
2023-01-19T05:38:03.967Z,33.73
2023-01-19T05:40:30.918Z,33.46
2023-01-19T05:43:01.660Z,33.53
2023-01-19T05:45:29.076Z,33.16
2023-01-19T05:47:56.161Z,33.01
2023-01-19T05:50:23.134Z,32.72
2023-01-19T05:52:50.081Z,32.53
2023-01-19T05:55:17.154Z,32.43
2023-01-19T05:57:44.288Z,32.31
2023-01-19T06:00:11.965Z,32.15
2023-01-19T06:02:40.004Z,31.93
2023-01-19T06:05:07.311Z,31.92
2023-01-19T06:07:34.316Z,31.88
2023-01-19T06:10:01.893Z,31.81
2023-01-19T06:12:29.037Z,31.79
2023-01-19T06:14:56.330Z,31.54
2023-01-19T06:17:23.400Z,31.32
2023-01-19T06:19:50.409Z,31.33
2023-01-19T06:22:17.379Z,30.97
2023-01-19T06:24:44.386Z,30.43
2023-01-19T06:27:11.470Z,30.61
2023-01-19T06:29:38.709Z,30.30
2023-01-19T06:32:06.372Z,29.80
2023-01-19T06:34:33.393Z,30.06
2023-01-19T06:37:00.668Z,29.79
2023-01-19T06:39:27.862Z,29.46
2023-01-19T06:41:54.901Z,28.59
2023-01-19T06:44:21.822Z,28.76
2023-01-19T06:46:49.239Z,28.97
2023-01-19T06:49:16.362Z,29.06
2023-01-19T06:51:43.457Z,29.24
2023-01-19T06:54:10.522Z,28.88
2023-01-19T06:56:37.724Z,28.58
2023-01-19T06:59:05.676Z,28.58
2023-01-19T07:01:32.984Z,28.26
2023-01-19T07:04:00.136Z,28.29
2023-01-19T07:06:27.211Z,28.30
2023-01-19T07:08:54.603Z,27.96
2023-01-19T07:11:29.868Z,27.75
2023-01-19T07:13:58.816Z,27.67
2023-01-19T07:16:26.191Z,27.68
2023-01-19T07:18:53.207Z,26.66
2023-01-19T07:21:20.390Z,27.35
2023-01-19T07:23:53.731Z,27.39
2023-01-19T07:26:21.749Z,27.28
2023-01-19T07:28:49.191Z,27.27
2023-01-19T07:31:16.399Z,27.17
2023-01-19T07:33:43.526Z,27.20
2023-01-19T07:36:10.976Z,27.17
2023-01-19T07:38:38.471Z,27.07
2023-01-19T07:41:06.892Z,27.23
2023-01-19T07:43:34.268Z,26.94
2023-01-19T07:46:03.448Z,26.86
2023-01-19T07:48:30.521Z,26.99
2023-01-19T07:51:11.675Z,27.07
2023-01-19T07:53:40.189Z,26.96
2023-01-19T07:56:07.796Z,26.75
2023-01-19T07:58:34.792Z,27.08
2023-01-19T08:01:06.619Z,27.22
2023-01-19T08:03:33.647Z,27.14
2023-01-19T08:06:00.665Z,27.29
2023-01-19T08:08:29.234Z,27.33
2023-01-19T08:10:56.153Z,27.36
2023-01-19T08:13:23.132Z,27.31
2023-01-19T08:15:53.509Z,27.24
2023-01-19T08:18:21.141Z,26.88
2023-01-19T08:20:48.303Z,26.80
2023-01-19T08:23:15.325Z,27.02
2023-01-19T08:25:44.490Z,27.08
2023-01-19T08:28:13.274Z,27.11
2023-01-19T08:30:40.864Z,27.11
2023-01-19T08:33:10.672Z,27.23
2023-01-19T08:35:39.708Z,26.96
2023-01-19T08:38:07.080Z,27.01
2023-01-19T08:40:36.137Z,27.08
2023-01-19T08:43:06.702Z,27.25
2023-01-19T08:45:34.729Z,26.89
2023-01-19T08:48:01.767Z,27.08
2023-01-19T08:50:29.765Z,27.43
2023-01-19T08:52:58.204Z,27.57
2023-01-19T08:55:25.541Z,27.36
2023-01-19T08:57:53.287Z,27.37
2023-01-19T09:00:20.725Z,27.52
2023-01-19T09:02:47.838Z,27.50
2023-01-19T09:05:14.977Z,27.56
2023-01-19T09:07:42.757Z,27.59
2023-01-19T09:10:10.556Z,27.54
2023-01-19T09:12:37.502Z,27.44
2023-01-19T09:15:05.142Z,27.46
2023-01-19T09:17:32.081Z,27.42
2023-01-19T09:19:59.212Z,27.54
2023-01-19T09:22:26.448Z,27.43
2023-01-19T09:24:53.416Z,27.38
2023-01-19T09:27:20.375Z,27.42
2023-01-19T09:29:52.594Z,27.42
2023-01-19T09:32:20.060Z,27.34
2023-01-19T09:34:47.260Z,27.60
2023-01-19T09:37:15.317Z,27.43
2023-01-19T09:39:42.496Z,27.14
2023-01-19T09:42:29.642Z,27.32
2023-01-19T09:44:56.633Z,27.38
2023-01-19T09:47:27.279Z,27.42
2023-01-19T09:50:01.755Z,27.21
2023-01-19T09:52:29.236Z,27.65
2023-01-19T09:54:57.272Z,27.54
2023-01-19T09:57:25.227Z,27.40
2023-01-19T09:59:57.912Z,27.18
2023-01-19T10:02:30.950Z,27.24
2023-01-19T10:05:13.592Z,27.10
2023-01-19T10:07:40.614Z,26.90
2023-01-19T10:10:32.198Z,27.22
2023-01-19T10:13:22.726Z,27.38
2023-01-19T10:15:57.657Z,27.29
2023-01-19T10:18:34.695Z,27.17
2023-01-19T10:21:10.673Z,26.72
2023-01-19T10:23:56.032Z,26.90
2023-01-19T10:26:37.911Z,26.94
2023-01-19T10:29:34.655Z,26.79
2023-01-19T10:32:10.885Z,26.80
2023-01-19T10:34:37.926Z,26.98
2023-01-19T10:37:21.302Z,26.81
2023-01-19T10:39:53.240Z,26.96
2023-01-19T10:42:20.647Z,27.01
2023-01-19T10:44:47.586Z,26.87
2023-01-19T10:47:18.759Z,26.86
2023-01-19T10:49:46.044Z,27.00
2023-01-19T10:52:29.124Z,26.78
2023-01-19T10:54:56.184Z,26.79
2023-01-19T10:57:28.478Z,27.38
2023-01-19T10:59:55.515Z,27.58
2023-01-19T11:02:27.685Z,28.01
2023-01-19T11:05:01.819Z,28.56
2023-01-19T11:07:35.681Z,28.92
2023-01-19T11:10:13.655Z,29.11
2023-01-19T11:12:45.732Z,29.33
2023-01-19T11:15:16.739Z,29.48
2023-01-19T11:17:45.003Z,29.96
2023-01-19T11:20:46.422Z,30.58
2023-01-19T11:23:43.118Z,30.25
2023-01-19T11:26:16.160Z,30.26
2023-01-19T11:28:46.437Z,29.92
2023-01-19T11:31:13.347Z,29.74
2023-01-19T11:33:53.893Z,29.51
2023-01-19T11:36:31.868Z,29.64
2023-01-19T11:39:24.025Z,29.23
2023-01-19T11:41:58.929Z,29.08
2023-01-19T11:44:44.662Z,28.96
2023-01-19T11:47:19.387Z,28.59
2023-01-19T11:50:26.538Z,28.68
2023-01-19T11:53:06.595Z,28.27
2023-01-19T11:55:57.633Z,28.58
2023-01-19T11:58:24.725Z,28.08
2023-01-19T12:01:08.416Z,27.99
2023-01-19T12:03:44.311Z,28.00
2023-01-19T12:06:31.069Z,27.96
2023-01-19T12:09:09.903Z,27.68
2023-01-19T12:11:46.505Z,27.63
2023-01-19T12:14:42.564Z,27.63
2023-01-19T12:17:14.250Z,27.43
2023-01-19T12:19:50.809Z,27.37
2023-01-19T12:22:18.208Z,27.39
2023-01-19T12:24:49.595Z,27.07
2023-01-19T12:27:39.995Z,26.98
2023-01-19T12:30:20.054Z,27.17
2023-01-19T12:32:47.142Z,27.12
2023-01-19T12:35:52.294Z,26.84
2023-01-19T12:38:46.941Z,26.96
2023-01-19T12:41:19.699Z,27.16
2023-01-19T12:44:08.642Z,27.08
2023-01-19T12:46:35.721Z,26.92
2023-01-19T12:49:17.705Z,26.96
2023-01-19T12:51:45.718Z,26.84
2023-01-19T12:54:32.944Z,26.88
2023-01-19T12:57:05.376Z,27.10
2023-01-19T12:59:32.279Z,27.36
2023-01-19T13:02:20.867Z,27.36
2023-01-19T13:05:21.747Z,27.45
2023-01-19T13:08:07.214Z,27.38
2023-01-19T13:10:56.232Z,27.30
2023-01-19T13:13:30.564Z,27.35
2023-01-19T13:16:02.880Z,27.35
2023-01-19T13:18:30.828Z,27.40
2023-01-19T13:21:02.276Z,27.24
2023-01-19T13:23:50.048Z,27.32
2023-01-19T13:26:21.760Z,27.19
2023-01-19T13:28:51.060Z,27.25
2023-01-19T13:31:18.261Z,27.34
2023-01-19T13:33:56.146Z,27.24
2023-01-19T13:36:33.710Z,27.03
2023-01-19T13:39:05.180Z,26.94
2023-01-19T13:41:35.690Z,27.04
2023-01-19T13:44:07.433Z,27.24
2023-01-19T13:46:34.719Z,27.42
2023-01-19T13:49:04.564Z,27.29
2023-01-19T13:51:31.847Z,27.32
2023-01-19T13:53:59.765Z,27.51
2023-01-19T13:56:28.562Z,27.53
2023-01-19T13:59:03.996Z,27.86
2023-01-19T14:01:32.915Z,27.57
2023-01-19T14:04:00.265Z,27.86
2023-01-19T14:06:36.379Z,27.95
2023-01-19T14:09:16.643Z,27.87
2023-01-19T14:12:05.663Z,28.14
2023-01-19T14:14:32.767Z,28.06
2023-01-19T14:16:59.862Z,28.27
2023-01-19T14:19:26.938Z,28.48
2023-01-19T14:22:03.934Z,28.43
2023-01-19T14:24:33.208Z,28.41
2023-01-19T14:27:09.803Z,28.44
2023-01-19T14:29:38.158Z,28.61
2023-01-19T14:32:17.875Z,28.79
2023-01-19T14:34:53.798Z,28.57
2023-01-19T14:37:28.381Z,29.06
2023-01-19T14:40:15.908Z,29.06
2023-01-19T14:42:48.200Z,29.42
2023-01-19T14:45:29.237Z,29.13
2023-01-19T14:48:12.096Z,29.34
2023-01-19T14:50:41.502Z,29.44
2023-01-19T14:53:16.454Z,29.72
2023-01-19T14:55:49.677Z,29.68
2023-01-19T14:58:18.146Z,29.82
2023-01-19T15:00:45.690Z,29.73
2023-01-19T15:03:12.753Z,29.88
2023-01-19T15:05:40.367Z,29.94
2023-01-19T15:08:07.361Z,29.92
2023-01-19T15:10:35.162Z,29.93
2023-01-19T15:13:02.102Z,29.99
2023-01-19T15:15:33.617Z,30.15
2023-01-19T15:18:01.663Z,30.56
2023-01-19T15:20:28.762Z,30.70
2023-01-19T15:22:55.752Z,30.65
2023-01-19T15:25:26.205Z,30.70
2023-01-19T15:27:53.415Z,30.52
2023-01-19T15:30:33.742Z,30.76
2023-01-19T15:33:01.934Z,30.91
2023-01-19T15:35:28.829Z,30.89
2023-01-19T15:37:55.775Z,30.91
2023-01-19T15:40:23.374Z,30.64
2023-01-19T15:42:50.538Z,30.68
2023-01-19T15:45:20.032Z,30.66
2023-01-19T15:47:46.891Z,30.83
2023-01-19T15:50:13.775Z,30.77
2023-01-19T15:52:40.660Z,31.28
2023-01-19T15:55:10.322Z,30.91
2023-01-19T15:57:37.383Z,31.01
2023-01-19T16:00:05.268Z,31.00
2023-01-19T16:02:37.551Z,31.38
2023-01-19T16:05:04.950Z,31.30
2023-01-19T16:07:33.413Z,31.37
2023-01-19T16:10:00.658Z,31.50
2023-01-19T16:12:28.675Z,31.66
2023-01-19T16:14:55.546Z,31.55
2023-01-19T16:17:22.363Z,31.70
2023-01-19T16:19:49.218Z,31.94
2023-01-19T16:22:16.082Z,31.85
2023-01-19T16:24:42.947Z,32.27
2023-01-19T16:27:09.799Z,32.34
2023-01-19T16:29:36.781Z,32.51
2023-01-19T16:32:03.668Z,32.53
2023-01-19T16:34:30.494Z,32.23
2023-01-19T16:36:57.376Z,32.65
2023-01-19T16:39:24.296Z,32.29
2023-01-19T16:41:51.132Z,32.72
2023-01-19T16:44:18.068Z,32.55
2023-01-19T16:46:45.458Z,32.65
2023-01-19T16:49:14.063Z,33.04
2023-01-19T16:51:41.114Z,32.83
2023-01-19T16:54:08.071Z,32.83
2023-01-19T16:56:34.900Z,33.21
2023-01-19T16:59:01.794Z,33.08
2023-01-19T17:01:29.000Z,32.93
2023-01-19T17:03:56.046Z,33.01
2023-01-19T17:06:23.172Z,33.14
2023-01-19T17:08:50.392Z,33.42
2023-01-19T17:11:20.695Z,33.38
2023-01-19T17:13:54.037Z,33.18
2023-01-19T17:16:21.488Z,33.39
2023-01-19T17:18:48.380Z,33.62
2023-01-19T17:21:18.044Z,33.39
2023-01-19T17:23:46.278Z,33.58
2023-01-19T17:26:13.132Z,33.54
2023-01-19T17:28:40.140Z,33.63
2023-01-19T17:31:14.460Z,33.65
2023-01-19T17:33:46.139Z,33.42
2023-01-19T17:36:17.855Z,33.47
2023-01-19T17:38:44.697Z,33.68
2023-01-19T17:41:13.641Z,33.41
2023-01-19T17:43:40.644Z,33.45
2023-01-19T17:46:07.564Z,33.62
2023-01-19T17:48:34.423Z,33.61
2023-01-19T17:51:11.869Z,33.61
2023-01-19T17:53:42.214Z,33.79
2023-01-19T17:56:13.882Z,33.47
2023-01-19T17:58:40.915Z,33.85
2023-01-19T18:01:19.373Z,33.51
2023-01-19T18:03:46.472Z,33.70
2023-01-19T18:06:13.598Z,33.91
2023-01-19T18:08:41.617Z,33.78
2023-01-19T18:11:08.826Z,34.08
2023-01-19T18:13:35.764Z,34.17
2023-01-19T18:16:09.916Z,33.76
2023-01-19T18:18:36.984Z,34.09
2023-01-19T18:21:08.295Z,34.05
2023-01-19T18:23:35.446Z,34.00
2023-01-19T18:26:10.046Z,34.14
2023-01-19T18:28:36.992Z,34.36
2023-01-19T18:31:10.974Z,34.46
2023-01-19T18:33:39.016Z,34.35
2023-01-19T18:36:06.391Z,34.43
2023-01-19T18:38:33.528Z,34.70
2023-01-19T18:41:20.006Z,34.51
2023-01-19T18:43:47.275Z,34.47
2023-01-19T18:46:14.475Z,34.72
2023-01-19T18:48:41.579Z,34.98
2023-01-19T18:51:09.406Z,34.82
2023-01-19T18:53:36.271Z,34.98
2023-01-19T18:56:03.468Z,34.58
2023-01-19T18:58:31.771Z,35.19
2023-01-19T19:00:59.421Z,34.74
2023-01-19T19:03:26.476Z,35.17
2023-01-19T19:05:53.482Z,34.99
2023-01-19T19:08:20.412Z,35.11
2023-01-19T19:10:47.406Z,35.10
2023-01-19T19:13:15.199Z,35.15
2023-01-19T19:15:44.325Z,35.32
2023-01-19T19:18:13.949Z,35.36
2023-01-19T19:20:42.120Z,35.65
2023-01-19T19:23:09.745Z,35.35
2023-01-19T19:25:36.657Z,35.64
2023-01-19T19:28:03.866Z,35.81
2023-01-19T19:30:30.841Z,35.67
2023-01-19T19:32:59.011Z,35.37
2023-01-19T19:35:26.013Z,35.79
2023-01-19T19:37:57.403Z,35.47
2023-01-19T19:40:25.568Z,35.82
2023-01-19T19:42:52.414Z,35.51
2023-01-19T19:45:19.501Z,35.34
2023-01-19T19:47:46.376Z,35.53
2023-01-19T19:50:14.213Z,35.74
2023-01-19T19:52:41.657Z,35.91
2023-01-19T19:55:09.022Z,35.78
2023-01-19T19:57:35.963Z,35.41
2023-01-19T20:00:05.085Z,35.69
2023-01-19T20:02:36.915Z,35.82
2023-01-19T20:05:04.726Z,35.90
2023-01-19T20:07:31.784Z,35.46
2023-01-19T20:09:58.956Z,35.62
2023-01-19T20:12:25.791Z,35.93
2023-01-19T20:14:52.648Z,36.03
2023-01-19T20:17:20.821Z,35.71
2023-01-19T20:19:49.027Z,35.68
2023-01-19T20:22:15.997Z,35.70
2023-01-19T20:24:42.947Z,35.76
2023-01-19T20:27:09.794Z,36.12
2023-01-19T20:29:36.683Z,36.30
2023-01-19T20:32:03.756Z,36.00
2023-01-19T20:34:33.220Z,36.32
2023-01-19T20:37:01.697Z,36.57
2023-01-19T20:39:30.197Z,36.57
2023-01-19T20:41:57.329Z,36.60
2023-01-19T20:44:25.059Z,36.63
2023-01-19T20:46:52.374Z,36.46
2023-01-19T20:49:19.232Z,36.64
2023-01-19T20:51:46.992Z,36.51
2023-01-19T20:54:16.620Z,36.38
2023-01-19T20:56:59.763Z,36.96
2023-01-19T20:59:26.948Z,36.94
2023-01-19T21:01:54.281Z,36.84
2023-01-19T21:04:22.380Z,36.76
2023-01-19T21:06:49.310Z,36.78
2023-01-19T21:09:18.648Z,36.86
2023-01-19T21:11:45.495Z,37.03
2023-01-19T21:14:12.392Z,37.33
2023-01-19T21:16:39.315Z,37.13
2023-01-19T21:19:06.572Z,37.30
2023-01-19T21:21:33.470Z,37.05
2023-01-19T21:24:01.459Z,37.42
2023-01-19T21:26:29.997Z,37.22
2023-01-19T21:29:00.415Z,37.36
2023-01-19T21:31:28.170Z,37.37
2023-01-19T21:33:55.819Z,37.60
2023-01-19T21:36:22.872Z,37.76
2023-01-19T21:38:51.562Z,37.19
2023-01-19T21:41:18.657Z,37.54
2023-01-19T21:43:46.304Z,37.56
2023-01-19T21:46:29.094Z,37.07
2023-01-19T21:48:57.168Z,37.59
2023-01-19T21:51:24.049Z,37.65
2023-01-19T21:53:56.093Z,37.57
2023-01-19T21:56:23.122Z,37.38
2023-01-19T21:58:49.969Z,37.50
2023-01-19T22:01:16.968Z,37.45
2023-01-19T22:03:44.067Z,37.66
2023-01-19T22:06:12.702Z,37.25
2023-01-19T22:08:39.823Z,37.73
2023-01-19T22:11:08.841Z,37.51
2023-01-19T22:13:35.964Z,37.81
2023-01-19T22:16:03.767Z,37.71
2023-01-19T22:18:30.803Z,37.91
2023-01-19T22:21:07.411Z,37.83
2023-01-19T22:23:34.415Z,37.65
2023-01-19T22:26:01.281Z,37.50
2023-01-19T22:28:28.124Z,37.60
2023-01-19T22:30:55.134Z,38.02
2023-01-19T22:33:22.051Z,37.84
2023-01-19T22:35:48.911Z,37.88
2023-01-19T22:38:15.767Z,38.04
2023-01-19T22:40:42.856Z,37.99
2023-01-19T22:43:09.765Z,38.07
2023-01-19T22:45:40.814Z,37.96
2023-01-19T22:48:07.665Z,38.27
2023-01-19T22:50:35.287Z,38.18
2023-01-19T22:53:02.249Z,38.23
2023-01-19T22:55:29.794Z,38.22
2023-01-19T22:57:56.645Z,38.03
2023-01-19T23:00:23.875Z,38.07
2023-01-19T23:02:50.743Z,38.34
2023-01-19T23:05:17.703Z,38.48
2023-01-19T23:07:44.681Z,38.63
2023-01-19T23:10:11.724Z,38.16
2023-01-19T23:12:38.588Z,38.31
2023-01-19T23:15:06.137Z,38.56
2023-01-19T23:17:32.972Z,38.51
2023-01-19T23:19:59.914Z,38.63
2023-01-19T23:22:26.820Z,38.51
2023-01-19T23:24:53.676Z,38.71
2023-01-19T23:27:20.496Z,38.36
2023-01-19T23:29:47.392Z,38.22
2023-01-19T23:32:14.235Z,38.66
2023-01-19T23:34:41.146Z,38.48
2023-01-19T23:37:08.007Z,38.78
2023-01-19T23:39:34.854Z,38.70
2023-01-19T23:42:03.555Z,38.73
2023-01-19T23:44:30.450Z,38.54
2023-01-19T23:46:58.024Z,38.88
2023-01-19T23:49:24.962Z,38.66
2023-01-19T23:51:51.867Z,38.61
2023-01-19T23:54:18.732Z,38.61
2023-01-19T23:56:45.558Z,38.85
2023-01-19T23:59:13.840Z,38.52
